sensor_id;sensor_type;location;lat;lon;timestamp;pressure;altitude;pressure_sealevel;temperature;humidity
22104;BME280;11218;48.886;9.426;2023-02-16T00:01:42;99046.41;;;2.02;87.37
22104;BME280;11218;48.886;9.426;2023-02-16T00:04:16;99043.94;;;2.00;87.43
22104;BME280;11218;48.886;9.426;2023-02-16T00:06:46;99051.41;;;1.96;87.60
22104;BME280;11218;48.886;9.426;2023-02-16T00:09:15;99047.25;;;1.94;86.50
22104;BME280;11218;48.886;9.426;2023-02-16T00:11:44;99054.72;;;1.90;87.37
22104;BME280;11218;48.886;9.426;2023-02-16T00:14:32;99057.56;;;1.89;86.36
22104;BME280;11218;48.886;9.426;2023-02-16T00:17:01;99054.56;;;1.84;86.51
22104;BME280;11218;48.886;9.426;2023-02-16T00:19:34;99051.44;;;1.80;86.66
22104;BME280;11218;48.886;9.426;2023-02-16T00:22:04;99056.56;;;1.82;87.64
22104;BME280;11218;48.886;9.426;2023-02-16T00:24:32;99061.88;;;1.82;87.21
22104;BME280;11218;48.886;9.426;2023-02-16T00:27:00;99060.56;;;1.78;87.32
22104;BME280;11218;48.886;9.426;2023-02-16T00:29:30;99059.25;;;1.74;86.64
22104;BME280;11218;48.886;9.426;2023-02-16T00:32:01;99064.88;;;1.71;87.83
22104;BME280;11218;48.886;9.426;2023-02-16T00:34:33;99064.88;;;1.62;87.16
22104;BME280;11218;48.886;9.426;2023-02-16T00:37:03;99055.09;;;1.63;87.22
22104;BME280;11218;48.886;9.426;2023-02-16T00:39:32;99065.72;;;1.63;87.01
22104;BME280;11218;48.886;9.426;2023-02-16T00:42:02;99067.22;;;1.57;86.58
22104;BME280;11218;48.886;9.426;2023-02-16T00:44:33;99072.84;;;1.54;87.60
22104;BME280;11218;48.886;9.426;2023-02-16T00:47:09;99083.63;;;1.53;87.34
22104;BME280;11218;48.886;9.426;2023-02-16T00:49:44;99081.13;;;1.51;87.61
22104;BME280;11218;48.886;9.426;2023-02-16T00:52:31;99076.19;;;1.48;86.87
22104;BME280;11218;48.886;9.426;2023-02-16T00:55:01;99081.00;;;1.45;87.88
22104;BME280;11218;48.886;9.426;2023-02-16T00:57:31;99071.38;;;1.44;87.42
22104;BME280;11218;48.886;9.426;2023-02-16T01:00:04;99075.53;;;1.46;87.14
22104;BME280;11218;48.886;9.426;2023-02-16T01:02:33;99076.38;;;1.47;87.80
22104;BME280;11218;48.886;9.426;2023-02-16T01:05:03;99072.22;;;1.44;88.12
22104;BME280;11218;48.886;9.426;2023-02-16T01:07:31;99077.34;;;1.46;87.48
22104;BME280;11218;48.886;9.426;2023-02-16T01:10:17;99076.53;;;1.45;88.03
22104;BME280;11218;48.886;9.426;2023-02-16T01:13:03;99060.94;;;1.42;87.35
22104;BME280;11218;48.886;9.426;2023-02-16T01:15:31;99074.03;;;1.44;87.43
22104;BME280;11218;48.886;9.426;2023-02-16T01:17:59;99073.22;;;1.43;88.00
22104;BME280;11218;48.886;9.426;2023-02-16T01:20:29;99069.72;;;1.43;88.31
22104;BME280;11218;48.886;9.426;2023-02-16T01:22:57;99064.59;;;1.41;87.56
22104;BME280;11218;48.886;9.426;2023-02-16T01:25:25;99064.91;;;1.38;87.47
22104;BME280;11218;48.886;9.426;2023-02-16T01:27:53;99062.44;;;1.37;88.17
22104;BME280;11218;48.886;9.426;2023-02-16T01:30:22;99069.56;;;1.36;87.22
22104;BME280;11218;48.886;9.426;2023-02-16T01:32:51;99076.69;;;1.36;87.17
22104;BME280;11218;48.886;9.426;2023-02-16T01:35:20;99061.28;;;1.31;87.17
22104;BME280;11218;48.886;9.426;2023-02-16T01:37:49;99066.91;;;1.28;87.61
22104;BME280;11218;48.886;9.426;2023-02-16T01:40:28;99069.72;;;1.26;87.69
22104;BME280;11218;48.886;9.426;2023-02-16T01:43:01;99057.78;;;1.22;87.05
22104;BME280;11218;48.886;9.426;2023-02-16T01:45:33;99053.13;;;1.16;88.26
22104;BME280;11218;48.886;9.426;2023-02-16T01:48:04;99047.50;;;1.11;88.84
22104;BME280;11218;48.886;9.426;2023-02-16T01:50:41;99055.28;;;1.13;87.96
22104;BME280;11218;48.886;9.426;2023-02-16T01:53:18;99058.75;;;1.05;88.31
22104;BME280;11218;48.886;9.426;2023-02-16T01:55:51;99049.31;;;1.03;88.98
22104;BME280;11218;48.886;9.426;2023-02-16T01:58:30;99041.53;;;1.01;89.36
22104;BME280;11218;48.886;9.426;2023-02-16T02:01:32;99044.50;;;1.06;88.82
22104;BME280;11218;48.886;9.426;2023-02-16T02:04:10;99041.03;;;1.06;87.57
22104;BME280;11218;48.886;9.426;2023-02-16T02:06:56;99046.31;;;0.97;88.16
22104;BME280;11218;48.886;9.426;2023-02-16T02:09:34;99033.41;;;0.94;87.86
22104;BME280;11218;48.886;9.426;2023-02-16T02:12:09;99025.44;;;0.94;88.39
22104;BME280;11218;48.886;9.426;2023-02-16T02:14:40;99025.28;;;0.96;87.95
22104;BME280;11218;48.886;9.426;2023-02-16T02:17:11;99032.56;;;0.86;87.13
22104;BME280;11218;48.886;9.426;2023-02-16T02:19:46;99037.84;;;0.86;87.91
22104;BME280;11218;48.886;9.426;2023-02-16T02:28:42;99027.59;;;0.91;88.03
22104;BME280;11218;48.886;9.426;2023-02-16T02:31:22;99024.63;;;0.94;88.81
22104;BME280;11218;48.886;9.426;2023-02-16T02:34:03;99033.56;;;0.93;88.92
22104;BME280;11218;48.886;9.426;2023-02-16T02:36:48;99030.59;;;0.96;88.92
22104;BME280;11218;48.886;9.426;2023-02-16T02:39:26;99032.56;;;0.94;89.37
22104;BME280;11218;48.886;9.426;2023-02-16T02:42:02;99028.75;;;0.96;88.27
22104;BME280;11218;48.886;9.426;2023-02-16T02:44:37;99025.28;;;0.96;89.42
22104;BME280;11218;48.886;9.426;2023-02-16T02:47:07;99021.97;;;0.94;89.33
22104;BME280;11218;48.886;9.426;2023-02-16T02:49:35;99027.94;;;0.96;88.57
22104;BME280;11218;48.886;9.426;2023-02-16T02:52:03;99016.34;;;0.97;88.11
22104;BME280;11218;48.886;9.426;2023-02-16T02:54:33;99014.50;;;0.89;87.96
22104;BME280;11218;48.886;9.426;2023-02-16T02:57:24;99019.66;;;0.91;88.63
22104;BME280;11218;48.886;9.426;2023-02-16T03:00:15;99009.53;;;0.86;88.47
22104;BME280;11218;48.886;9.426;2023-02-16T03:03:05;99005.41;;;0.84;88.52
22104;BME280;11218;48.886;9.426;2023-02-16T03:05:37;99007.88;;;0.85;88.34
22104;BME280;11218;48.886;9.426;2023-02-16T03:08:09;99001.59;;;0.78;87.90
22104;BME280;11218;48.886;9.426;2023-02-16T03:10:45;99014.81;;;0.78;88.40
22104;BME280;11218;48.886;9.426;2023-02-16T03:13:37;99015.16;;;0.75;88.10
22104;BME280;11218;48.886;9.426;2023-02-16T03:16:11;99011.19;;;0.71;87.55
22104;BME280;11218;48.886;9.426;2023-02-16T03:18:42;99005.56;;;0.66;87.78
22104;BME280;11218;48.886;9.426;2023-02-16T03:21:29;99007.72;;;0.62;88.48
22104;BME280;11218;48.886;9.426;2023-02-16T03:24:19;99008.19;;;0.58;88.74
22104;BME280;11218;48.886;9.426;2023-02-16T03:27:08;99001.56;;;0.54;88.13
22104;BME280;11218;48.886;9.426;2023-02-16T03:29:54;99010.34;;;0.54;88.16
22104;BME280;11218;48.886;9.426;2023-02-16T03:32:25;99015.47;;;0.56;88.42
22104;BME280;11218;48.886;9.426;2023-02-16T03:34:54;99012.66;;;0.57;88.64
22104;BME280;11218;48.886;9.426;2023-02-16T03:37:22;99021.75;;;0.55;87.98
22104;BME280;11218;48.886;9.426;2023-02-16T03:39:50;99021.56;;;0.48;87.47
22104;BME280;11218;48.886;9.426;2023-02-16T03:42:36;99020.56;;;0.41;89.33
22104;BME280;11218;48.886;9.426;2023-02-16T03:45:06;99010.63;;;0.43;89.55
22104;BME280;11218;48.886;9.426;2023-02-16T03:47:36;99018.09;;;0.48;90.00
22104;BME280;11218;48.886;9.426;2023-02-16T03:50:05;99023.38;;;0.48;89.86
22104;BME280;11218;48.886;9.426;2023-02-16T03:52:33;99022.91;;;0.52;89.15
22104;BME280;11218;48.886;9.426;2023-02-16T03:55:01;99023.56;;;0.54;89.32
22104;BME280;11218;48.886;9.426;2023-02-16T03:57:29;99021.75;;;0.55;89.94
22104;BME280;11218;48.886;9.426;2023-02-16T03:59:57;99028.88;;;0.54;89.20
22104;BME280;11218;48.886;9.426;2023-02-16T04:02:26;99028.22;;;0.52;89.33
22104;BME280;11218;48.886;9.426;2023-02-16T04:04:56;99029.03;;;0.53;89.33
22104;BME280;11218;48.886;9.426;2023-02-16T04:07:24;99039.13;;;0.49;89.95
22104;BME280;11218;48.886;9.426;2023-02-16T04:09:52;99033.81;;;0.49;89.20
22104;BME280;11218;48.886;9.426;2023-02-16T04:12:20;99032.31;;;0.47;89.78
22104;BME280;11218;48.886;9.426;2023-02-16T04:15:06;99033.81;;;0.49;90.43
22104;BME280;11218;48.886;9.426;2023-02-16T04:17:34;99037.13;;;0.51;89.55
22104;BME280;11218;48.886;9.426;2023-02-16T04:20:07;99036.81;;;0.54;89.38
22104;BME280;11218;48.886;9.426;2023-02-16T04:22:38;99036.00;;;0.54;89.50
22104;BME280;11218;48.886;9.426;2023-02-16T04:25:06;99040.97;;;0.57;89.91
22104;BME280;11218;48.886;9.426;2023-02-16T04:27:35;99038.31;;;0.57;90.00
22104;BME280;11218;48.886;9.426;2023-02-16T04:30:05;99043.28;;;0.60;89.09
22104;BME280;11218;48.886;9.426;2023-02-16T04:32:34;99050.19;;;0.45;88.69
22104;BME280;11218;48.886;9.426;2023-02-16T04:35:04;99047.38;;;0.46;89.96
22104;BME280;11218;48.886;9.426;2023-02-16T04:37:32;99045.56;;;0.47;89.63
22104;BME280;11218;48.886;9.426;2023-02-16T04:40:00;99045.75;;;0.53;89.46
22104;BME280;11218;48.886;9.426;2023-02-16T04:42:29;99042.94;;;0.55;88.99
22104;BME280;11218;48.886;9.426;2023-02-16T04:44:57;99046.94;;;0.59;89.19
22104;BME280;11218;48.886;9.426;2023-02-16T04:47:25;99029.22;;;0.59;89.45
22104;BME280;11218;48.886;9.426;2023-02-16T04:49:54;99034.34;;;0.61;88.73
22104;BME280;11218;48.886;9.426;2023-02-16T04:52:23;99033.38;;;0.62;89.81
22104;BME280;11218;48.886;9.426;2023-02-16T04:54:51;99032.53;;;0.61;88.82
22104;BME280;11218;48.886;9.426;2023-02-16T04:57:19;99030.03;;;0.60;89.27
22104;BME280;11218;48.886;9.426;2023-02-16T04:59:49;99033.53;;;0.60;89.74
22104;BME280;11218;48.886;9.426;2023-02-16T05:02:17;99030.53;;;0.55;88.32
22104;BME280;11218;48.886;9.426;2023-02-16T05:04:45;99029.69;;;0.55;89.02
22104;BME280;11218;48.886;9.426;2023-02-16T05:07:13;99023.56;;;0.54;89.09
22104;BME280;11218;48.886;9.426;2023-02-16T05:09:43;99034.16;;;0.54;89.80
22104;BME280;11218;48.886;9.426;2023-02-16T05:12:11;99044.59;;;0.56;89.63
22104;BME280;11218;48.886;9.426;2023-02-16T05:14:56;99037.97;;;0.52;89.49
22104;BME280;11218;48.886;9.426;2023-02-16T05:17:25;99044.41;;;0.49;88.45
22104;BME280;11218;48.886;9.426;2023-02-16T05:19:55;99033.97;;;0.48;89.59
22104;BME280;11218;48.886;9.426;2023-02-16T05:22:24;99033.00;;;0.49;88.90
22104;BME280;11218;48.886;9.426;2023-02-16T05:24:55;99027.34;;;0.44;88.93
22104;BME280;11218;48.886;9.426;2023-02-16T05:27:29;99035.63;;;0.41;89.23
22104;BME280;11218;48.886;9.426;2023-02-16T05:29:58;99035.78;;;0.39;88.32
22104;BME280;11218;48.886;9.426;2023-02-16T05:32:26;99030.47;;;0.39;89.53
22104;BME280;11218;48.886;9.426;2023-02-16T05:34:54;99035.63;;;0.41;89.40
22104;BME280;11218;48.886;9.426;2023-02-16T05:37:22;99042.72;;;0.40;89.25
22104;BME280;11218;48.886;9.426;2023-02-16T05:39:50;99036.09;;;0.36;88.19
22104;BME280;11218;48.886;9.426;2023-02-16T05:42:21;99051.97;;;0.36;89.42
22104;BME280;11218;48.886;9.426;2023-02-16T05:44:48;99052.66;;;0.38;89.57
22104;BME280;11218;48.886;9.426;2023-02-16T05:47:17;99049.16;;;0.38;88.11
22104;BME280;11218;48.886;9.426;2023-02-16T05:49:45;99065.03;;;0.29;87.95
22104;BME280;11218;48.886;9.426;2023-02-16T05:52:13;99061.34;;;0.22;88.49
22104;BME280;11218;48.886;9.426;2023-02-16T05:54:41;99059.53;;;0.23;89.48
22104;BME280;11218;48.886;9.426;2023-02-16T05:57:09;99071.78;;;0.24;89.60
22104;BME280;11218;48.886;9.426;2023-02-16T05:59:38;99070.13;;;0.23;89.55
22104;BME280;11218;48.886;9.426;2023-02-16T06:02:06;99076.91;;;0.25;89.62
22104;BME280;11218;48.886;9.426;2023-02-16T06:04:35;99080.38;;;0.26;89.42
22104;BME280;11218;48.886;9.426;2023-02-16T06:07:03;99074.94;;;0.27;89.65
22104;BME280;11218;48.886;9.426;2023-02-16T06:09:32;99068.97;;;0.25;88.79
22104;BME280;11218;48.886;9.426;2023-02-16T06:12:00;99083.88;;;0.26;89.31
22104;BME280;11218;48.886;9.426;2023-02-16T06:14:28;99080.72;;;0.23;88.32
22104;BME280;11218;48.886;9.426;2023-02-16T06:16:57;99075.06;;;0.18;89.17
22104;BME280;11218;48.886;9.426;2023-02-16T06:19:26;99083.50;;;0.21;89.38
22104;BME280;11218;48.886;9.426;2023-02-16T06:21:55;99077.91;;;0.24;90.20
22104;BME280;11218;48.886;9.426;2023-02-16T06:24:24;99085.84;;;0.24;90.09
22104;BME280;11218;48.886;9.426;2023-02-16T06:26:52;99094.47;;;0.26;89.35
22104;BME280;11218;48.886;9.426;2023-02-16T06:29:20;99090.25;;;0.16;88.54
22104;BME280;11218;48.886;9.426;2023-02-16T06:31:48;99098.38;;;0.14;89.30
22104;BME280;11218;48.886;9.426;2023-02-16T06:34:17;99096.38;;;0.16;88.67
22104;BME280;11218;48.886;9.426;2023-02-16T06:36:45;99091.94;;;0.17;89.03
22104;BME280;11218;48.886;9.426;2023-02-16T06:39:13;99084.97;;;0.16;88.03
22104;BME280;11218;48.886;9.426;2023-02-16T06:41:41;99083.00;;;0.18;88.77
22104;BME280;11218;48.886;9.426;2023-02-16T06:44:11;99085.22;;;0.30;89.08
22104;BME280;11218;48.886;9.426;2023-02-16T06:46:40;99084.38;;;0.30;88.66
22104;BME280;11218;48.886;9.426;2023-02-16T06:49:10;99082.25;;;0.33;88.54
22104;BME280;11218;48.886;9.426;2023-02-16T06:51:40;99085.41;;;0.37;88.85
22104;BME280;11218;48.886;9.426;2023-02-16T06:54:08;99093.34;;;0.37;88.14
22104;BME280;11218;48.886;9.426;2023-02-16T06:56:36;99095.47;;;0.33;87.79
22104;BME280;11218;48.886;9.426;2023-02-16T06:59:05;99094.66;;;0.33;88.91
22104;BME280;11218;48.886;9.426;2023-02-16T07:01:33;99091.84;;;0.35;88.60
22104;BME280;11218;48.886;9.426;2023-02-16T07:04:01;99098.50;;;0.39;87.79
22104;BME280;11218;48.886;9.426;2023-02-16T07:06:29;99094.34;;;0.36;88.60
22104;BME280;11218;48.886;9.426;2023-02-16T07:08:59;99095.00;;;0.38;87.93
22104;BME280;11218;48.886;9.426;2023-02-16T07:11:27;99097.16;;;0.35;87.86
22104;BME280;11218;48.886;9.426;2023-02-16T07:13:55;99103.91;;;0.29;87.22
22104;BME280;11218;48.886;9.426;2023-02-16T07:16:23;99105.03;;;0.26;88.48
22104;BME280;11218;48.886;9.426;2023-02-16T07:18:52;99109.19;;;0.29;87.97
22104;BME280;11218;48.886;9.426;2023-02-16T07:21:20;99103.59;;;0.32;88.15
22104;BME280;11218;48.886;9.426;2023-02-16T07:23:49;99112.03;;;0.36;88.47
22104;BME280;11218;48.886;9.426;2023-02-16T07:26:19;99106.75;;;0.36;88.14
22104;BME280;11218;48.886;9.426;2023-02-16T07:28:48;99106.75;;;0.36;88.32
22104;BME280;11218;48.886;9.426;2023-02-16T07:31:17;99109.91;;;0.39;88.36
22104;BME280;11218;48.886;9.426;2023-02-16T07:33:45;99117.03;;;0.39;88.09
22104;BME280;11218;48.886;9.426;2023-02-16T07:36:13;99113.38;;;0.40;88.40
22104;BME280;11218;48.886;9.426;2023-02-16T07:38:41;99115.22;;;0.39;88.35
22104;BME280;11218;48.886;9.426;2023-02-16T07:41:10;99117.06;;;0.47;87.48
22104;BME280;11218;48.886;9.426;2023-02-16T07:43:40;99118.41;;;0.51;88.23
22104;BME280;11218;48.886;9.426;2023-02-16T07:46:09;99113.31;;;0.57;87.78
22104;BME280;11218;48.886;9.426;2023-02-16T07:48:37;99114.00;;;0.68;87.23
22104;BME280;11218;48.886;9.426;2023-02-16T07:51:05;99112.19;;;0.76;87.28
22104;BME280;11218;48.886;9.426;2023-02-16T07:53:33;99110.56;;;0.83;86.88
22104;BME280;11218;48.886;9.426;2023-02-16T07:56:02;99107.59;;;0.86;86.89
22104;BME280;11218;48.886;9.426;2023-02-16T07:58:30;99104.97;;;0.94;88.05
22104;BME280;11218;48.886;9.426;2023-02-16T08:01:08;99115.41;;;1.04;87.15
22104;BME280;11218;48.886;9.426;2023-02-16T08:03:36;99112.94;;;1.11;87.31
22104;BME280;11218;48.886;9.426;2023-02-16T08:06:06;99125.38;;;1.18;86.92
22104;BME280;11218;48.886;9.426;2023-02-16T08:08:34;99123.41;;;1.28;86.29
22104;BME280;11218;48.886;9.426;2023-02-16T08:11:09;99126.25;;;1.35;86.24
22104;BME280;11218;48.886;9.426;2023-02-16T08:13:37;99120.13;;;1.43;85.65
22104;BME280;11218;48.886;9.426;2023-02-16T08:16:11;99115.63;;;1.51;86.68
22104;BME280;11218;48.886;9.426;2023-02-16T08:18:39;99117.63;;;1.57;86.58
22104;BME280;11218;48.886;9.426;2023-02-16T08:21:09;99122.75;;;1.67;86.71
22104;BME280;11218;48.886;9.426;2023-02-16T08:23:40;99126.91;;;1.78;87.52
22104;BME280;11218;48.886;9.426;2023-02-16T08:26:10;99129.06;;;1.90;87.20
22104;BME280;11218;48.886;9.426;2023-02-16T08:28:38;99130.38;;;2.03;85.96
22104;BME280;11218;48.886;9.426;2023-02-16T08:31:15;99128.84;;;2.16;86.03
22104;BME280;11218;48.886;9.426;2023-02-16T08:33:44;99122.66;;;2.32;86.24
22104;BME280;11218;48.886;9.426;2023-02-16T08:36:16;99128.94;;;2.39;86.24
22104;BME280;11218;48.886;9.426;2023-02-16T08:38:45;99130.41;;;2.50;86.16
22104;BME280;11218;48.886;9.426;2023-02-16T08:41:16;99121.88;;;2.62;86.66
22104;BME280;11218;48.886;9.426;2023-02-16T08:43:44;99122.16;;;2.76;86.04
22104;BME280;11218;48.886;9.426;2023-02-16T08:46:14;99120.44;;;2.91;85.51
22104;BME280;11218;48.886;9.426;2023-02-16T08:48:43;99119.50;;;3.07;85.85
22104;BME280;11218;48.886;9.426;2023-02-16T08:51:13;99113.44;;;3.21;85.43
22104;BME280;11218;48.886;9.426;2023-02-16T08:53:44;99115.34;;;3.35;85.57
22104;BME280;11218;48.886;9.426;2023-02-16T08:56:13;99121.38;;;3.52;85.84
22104;BME280;11218;48.886;9.426;2023-02-16T08:58:42;99123.25;;;3.66;85.42
22104;BME280;11218;48.886;9.426;2023-02-16T09:01:11;99111.44;;;3.83;85.34
22104;BME280;11218;48.886;9.426;2023-02-16T09:03:44;99114.72;;;4.08;85.23
22104;BME280;11218;48.886;9.426;2023-02-16T09:06:14;99116.41;;;4.39;84.77
22104;BME280;11218;48.886;9.426;2023-02-16T09:08:42;99121.69;;;4.68;85.03
22104;BME280;11218;48.886;9.426;2023-02-16T09:11:14;99109.44;;;4.88;83.07
22104;BME280;11218;48.886;9.426;2023-02-16T09:13:42;99111.72;;;5.06;82.95
22104;BME280;11218;48.886;9.426;2023-02-16T09:16:13;99104.91;;;5.25;83.28
22104;BME280;11218;48.886;9.426;2023-02-16T09:18:45;99106.56;;;5.47;82.41
22104;BME280;11218;48.886;9.426;2023-02-16T09:21:15;99101.88;;;5.71;81.46
22104;BME280;11218;48.886;9.426;2023-02-16T09:23:44;99100.25;;;5.98;80.60
22104;BME280;11218;48.886;9.426;2023-02-16T09:26:15;99098.59;;;6.24;78.41
22104;BME280;11218;48.886;9.426;2023-02-16T09:28:43;99098.97;;;6.49;77.76
22104;BME280;11218;48.886;9.426;2023-02-16T09:31:15;99097.63;;;6.73;76.55
22104;BME280;11218;48.886;9.426;2023-02-16T09:33:47;99100.81;;;6.97;75.50
22104;BME280;11218;48.886;9.426;2023-02-16T09:36:15;99103.16;;;7.19;73.94
22104;BME280;11218;48.886;9.426;2023-02-16T09:38:43;99101.97;;;7.42;72.97
22104;BME280;11218;48.886;9.426;2023-02-16T09:41:20;99105.06;;;7.58;71.83
22104;BME280;11218;48.886;9.426;2023-02-16T09:43:55;99107.16;;;7.76;70.83
22104;BME280;11218;48.886;9.426;2023-02-16T09:46:25;99109.22;;;7.94;70.12
22104;BME280;11218;48.886;9.426;2023-02-16T09:48:55;99106.34;;;8.09;69.16
22104;BME280;11218;48.886;9.426;2023-02-16T09:51:28;99116.63;;;8.25;68.55
22104;BME280;11218;48.886;9.426;2023-02-16T09:54:09;99111.06;;;8.40;67.19
22104;BME280;11218;48.886;9.426;2023-02-16T09:56:45;99100.72;;;8.56;66.01
22104;BME280;11218;48.886;9.426;2023-02-16T09:59:34;99101.91;;;8.74;65.06
22104;BME280;11218;48.886;9.426;2023-02-16T10:02:26;99100.59;;;8.89;64.74
22104;BME280;11218;48.886;9.426;2023-02-16T10:05:10;99090.78;;;9.08;64.56
22104;BME280;11218;48.886;9.426;2023-02-16T10:07:58;99085.56;;;9.20;63.89
22104;BME280;11218;48.886;9.426;2023-02-16T10:10:37;99092.53;;;9.34;63.54
22104;BME280;11218;48.886;9.426;2023-02-16T10:13:11;99091.78;;;9.52;62.47
22104;BME280;11218;48.886;9.426;2023-02-16T10:15:43;99092.50;;;9.66;61.71
22104;BME280;11218;48.886;9.426;2023-02-16T10:18:19;99087.84;;;9.79;60.94
22104;BME280;11218;48.886;9.426;2023-02-16T10:20:53;99087.97;;;9.91;60.19
22104;BME280;11218;48.886;9.426;2023-02-16T10:23:32;99086.22;;;10.03;59.91
22104;BME280;11218;48.886;9.426;2023-02-16T10:26:14;99084.22;;;10.17;58.93
22104;BME280;11218;48.886;9.426;2023-02-16T10:28:46;99087.50;;;10.26;58.56
22104;BME280;11218;48.886;9.426;2023-02-16T10:31:19;99092.97;;;10.37;58.24
22104;BME280;11218;48.886;9.426;2023-02-16T10:34:16;99083.09;;;10.49;57.30
22104;BME280;11218;48.886;9.426;2023-02-16T10:36:58;99085.88;;;10.61;56.93
22104;BME280;11218;48.886;9.426;2023-02-16T10:39:34;99084.06;;;10.73;56.75
22104;BME280;11218;48.886;9.426;2023-02-16T10:42:12;99080.03;;;10.82;55.32
22104;BME280;11218;48.886;9.426;2023-02-16T10:44:46;99084.75;;;10.87;55.48
22104;BME280;11218;48.886;9.426;2023-02-16T10:47:26;99085.72;;;10.93;54.50
22104;BME280;11218;48.886;9.426;2023-02-16T10:49:56;99071.94;;;11.01;53.88
22104;BME280;11218;48.886;9.426;2023-02-16T10:52:28;99082.78;;;11.12;54.07
22104;BME280;11218;48.886;9.426;2023-02-16T10:55:00;99070.59;;;11.22;53.94
22104;BME280;11218;48.886;9.426;2023-02-16T10:57:30;99068.53;;;11.35;53.47
22104;BME280;11218;48.886;9.426;2023-02-16T11:00:00;99065.75;;;11.42;52.88
22104;BME280;11218;48.886;9.426;2023-02-16T11:02:35;99055.22;;;11.52;52.18
22104;BME280;11218;48.886;9.426;2023-02-16T11:05:29;99062.41;;;11.58;51.66
22104;BME280;11218;48.886;9.426;2023-02-16T11:08:00;99053.63;;;11.74;51.61
22104;BME280;11218;48.886;9.426;2023-02-16T11:10:40;99060.97;;;11.86;51.37
22104;BME280;11218;48.886;9.426;2023-02-16T11:13:29;99058.50;;;12.07;48.27
22104;BME280;11218;48.886;9.426;2023-02-16T11:16:02;99056.50;;;12.03;49.83
22104;BME280;11218;48.886;9.426;2023-02-16T11:18:35;99054.28;;;12.11;49.12
22104;BME280;11218;48.886;9.426;2023-02-16T11:21:04;99053.22;;;12.12;49.41
22104;BME280;11218;48.886;9.426;2023-02-16T11:23:35;99050.63;;;12.17;49.16
22104;BME280;11218;48.886;9.426;2023-02-16T11:26:05;99045.25;;;12.17;48.93
22104;BME280;11218;48.886;9.426;2023-02-16T11:28:36;99047.22;;;12.34;47.21
22104;BME280;11218;48.886;9.426;2023-02-16T11:31:12;99037.25;;;12.34;47.15
22104;BME280;11218;48.886;9.426;2023-02-16T11:33:53;99036.44;;;12.34;48.00
22104;BME280;11218;48.886;9.426;2023-02-16T11:36:28;99035.72;;;12.38;47.38
22104;BME280;11218;48.886;9.426;2023-02-16T11:39:02;99035.34;;;12.46;46.21
22104;BME280;11218;48.886;9.426;2023-02-16T11:41:33;99028.78;;;12.42;46.25
22104;BME280;11218;48.886;9.426;2023-02-16T11:44:03;99038.28;;;12.57;47.41
22104;BME280;11218;48.886;9.426;2023-02-16T11:46:38;99024.06;;;12.61;46.43
22104;BME280;11218;48.886;9.426;2023-02-16T11:49:21;99023.19;;;12.72;46.69
22104;BME280;11218;48.886;9.426;2023-02-16T11:51:55;99027.25;;;12.87;46.21
22104;BME280;11218;48.886;9.426;2023-02-16T11:54:24;99024.41;;;12.93;45.88
22104;BME280;11218;48.886;9.426;2023-02-16T11:57:05;99023.22;;;13.01;44.67
22104;BME280;11218;48.886;9.426;2023-02-16T11:59:36;99007.19;;;13.11;44.96
22104;BME280;11218;48.886;9.426;2023-02-16T12:05:22;99000.88;;;13.34;43.94
22104;BME280;11218;48.886;9.426;2023-02-16T12:08:13;98992.28;;;13.37;42.73
22104;BME280;11218;48.886;9.426;2023-02-16T12:10:56;98987.16;;;13.40;42.97
22104;BME280;11218;48.886;9.426;2023-02-16T12:13:36;98982.34;;;13.42;41.98
22104;BME280;11218;48.886;9.426;2023-02-16T12:16:18;98983.41;;;13.41;41.62
22104;BME280;11218;48.886;9.426;2023-02-16T12:19:01;98977.94;;;13.36;42.23
22104;BME280;11218;48.886;9.426;2023-02-16T12:21:37;98977.66;;;13.38;43.59
22104;BME280;11218;48.886;9.426;2023-02-16T12:24:19;98970.69;;;13.42;43.72
22104;BME280;11218;48.886;9.426;2023-02-16T12:26:56;98979.63;;;13.42;43.24
22104;BME280;11218;48.886;9.426;2023-02-16T12:29:39;98975.53;;;13.57;43.71
22104;BME280;11218;48.886;9.426;2023-02-16T12:32:26;98981.53;;;13.75;43.67
22104;BME280;11218;48.886;9.426;2023-02-16T12:35:07;98966.59;;;13.90;42.38
22104;BME280;11218;48.886;9.426;2023-02-16T12:37:45;98968.97;;;13.86;41.90
22104;BME280;11218;48.886;9.426;2023-02-16T12:40:23;98962.59;;;13.75;43.10
22104;BME280;11218;48.886;9.426;2023-02-16T12:43:01;98957.75;;;13.77;43.31
22104;BME280;11218;48.886;9.426;2023-02-16T12:45:36;98957.91;;;13.88;42.28
22104;BME280;11218;48.886;9.426;2023-02-16T12:48:18;98958.72;;;13.71;43.13
22104;BME280;11218;48.886;9.426;2023-02-16T12:50:54;98951.84;;;13.80;43.16
22104;BME280;11218;48.886;9.426;2023-02-16T12:53:26;98942.09;;;13.79;42.98
22104;BME280;11218;48.886;9.426;2023-02-16T12:56:00;98941.50;;;13.77;43.83
22104;BME280;11218;48.886;9.426;2023-02-16T12:58:33;98940.88;;;13.70;44.35
22104;BME280;11218;48.886;9.426;2023-02-16T13:01:07;98935.94;;;13.67;44.13
22104;BME280;11218;48.886;9.426;2023-02-16T13:03:40;98931.59;;;13.66;44.71
22104;BME280;11218;48.886;9.426;2023-02-16T13:06:21;98926.41;;;13.81;43.32
22104;BME280;11218;48.886;9.426;2023-02-16T13:08:56;98925.66;;;13.86;42.47
22104;BME280;11218;48.886;9.426;2023-02-16T13:11:31;98917.47;;;13.81;42.55
22104;BME280;11218;48.886;9.426;2023-02-16T13:14:09;98916.47;;;13.87;42.88
22104;BME280;11218;48.886;9.426;2023-02-16T13:16:42;98917.31;;;13.88;42.20
22104;BME280;11218;48.886;9.426;2023-02-16T13:19:13;98909.19;;;13.88;42.53
22104;BME280;11218;48.886;9.426;2023-02-16T13:24:39;98911.59;;;14.28;42.07
22104;BME280;11218;48.886;9.426;2023-02-16T13:27:20;98917.13;;;14.38;42.05
22104;BME280;11218;48.886;9.426;2023-02-16T13:30:05;98917.88;;;14.33;41.57
22104;BME280;11218;48.886;9.426;2023-02-16T13:32:54;98913.72;;;14.26;42.04
22104;BME280;11218;48.886;9.426;2023-02-16T13:35:49;98914.16;;;14.39;41.64
22104;BME280;11218;48.886;9.426;2023-02-16T13:38:38;98910.00;;;14.32;41.56
22104;BME280;11218;48.886;9.426;2023-02-16T13:44:14;98898.78;;;14.23;43.01
22104;BME280;11218;48.886;9.426;2023-02-16T13:46:47;98910.69;;;14.22;41.83
22104;BME280;11218;48.886;9.426;2023-02-16T13:49:29;98914.16;;;14.18;42.87
22104;BME280;11218;48.886;9.426;2023-02-16T13:51:58;98915.03;;;14.23;41.94
22104;BME280;11218;48.886;9.426;2023-02-16T13:54:28;98916.38;;;14.21;42.54